Hauptseite
METAR-TAF:

METAR-TAF

Flughäfen :

Deauville, Frankreich

Flughafen Deauville

Breite: 49-21-55N, Länge: 000-09-16E, Höhe: 146 m

Beobachtung

Neuester Wetterbericht von vor 25 Minuten, um 09:30 UTC
Wind 3 kt aus unterschiedlichen Richtungen
Temperatur 23°C
Luftfeuchtigkeit 44%
Luftdruck 1024 hPa
Sichtweite 10 km oder mehr
keine Wolken unter 1500 m und keine Kumulonimbus oder Gewitterwolken

METAR: LFRG 190930Z AUTO VRB03KT CAVOK 23/10 Q1024 NOSIG

Zeit: 11:55 (09:55 UTC)

Prognose

Neuester Wetterbericht von vor 1 Stunde und 55 Minuten, um 08:00 UTC
Gültige Prognose vom 19 um 09 UTC bis 19 um 18 UTC
Wind 4 kt aus Süd/Südwest
Sichtweite 10 km oder mehr
keine Wolken unter 1500 m und keine Kumulonimbus oder Gewitterwolken

TAF: LFRG 190800Z 1909/1918 20004KT CAVOK

Wetterbeobachtungen und Prognosen von mehr als 4000 Flughäfen (METAR und TAF Bericht).

Die verfügbaren Stationen werden durch gelbe und rote Markierungen auf der Karte dargestellt.

Führen Sie die Maus auf sie, um den Namen der Station zu sehen.

Darauf klicken, um die Beobachtung von Wetterbeobachtungen und Prognosen zu sehen.

Um die Karte zu ändern : klicken Sie auf den grünen Tasten mit einem schwarzen Kreuz Zum Vergrößern, auf den grünen Button mit einem Gedankenstrich zu verkleinern, oder auf die grünen Pfeile für benachbarte Karten.


METAR-TAF: